Time;durP1;ratioP1;P1;durP2;ratioP2;P2;SDS_P1;SDS_P2;PMS_P1;PMS_P2;Temp;Humidity;BMP_temperature;BMP_pressure;BME280_temperature;BME280_humidity;BME280_pressure;Samples;Min_cycle;Max_cycle;Signal;HPM_P1;HPM_P2
2022/06/30 00:01:36;;;;;;;;;;;16.50;99.90;;;;;;5120715;27;19930;-65
2022/06/30 00:04:02;;;;;;;;;;;16.40;99.90;;;;;;5121947;27;19907;-65
2022/06/30 00:06:27;;;;;;;;;;;16.40;99.90;;;;;;5119978;27;19907;-66
2022/06/30 00:08:53;;;;;;;;;;;16.50;99.90;;;;;;5113072;27;19908;-66
2022/06/30 00:11:19;;;;;;;;;;;16.50;99.90;;;;;;5121893;27;19973;-66
2022/06/30 00:13:45;;;;;;;;;;;16.40;99.90;;;;;;5117819;27;19908;-66
2022/06/30 00:16:10;;;;;;;;;;;16.30;99.90;;;;;;5117621;27;19960;-66
2022/06/30 00:18:36;;;;;;;;;;;16.40;99.90;;;;;;5118233;27;20014;-65
2022/06/30 00:21:01;;;;;;;;;;;16.30;99.90;;;;;;5095112;27;19944;-66
2022/06/30 00:23:27;;;;;;;;;;;16.30;99.90;;;;;;5119752;27;19946;-66
2022/06/30 00:25:53;;;;;;;;;;;16.40;99.90;;;;;;5116663;27;19907;-66
2022/06/30 00:28:19;;;;;;;;;;;16.30;99.90;;;;;;5097521;27;19907;-66
2022/06/30 00:30:45;;;;;;;;;;;16.50;99.90;;;;;;5119342;27;19907;-65
2022/06/30 00:33:11;;;;;;;;;;;16.60;99.90;;;;;;5117191;27;19918;-67
2022/06/30 00:35:37;;;;;;;;;;;16.80;99.90;;;;;;5097375;27;19919;-66
2022/06/30 00:38:02;;;;;;;;;;;16.90;99.90;;;;;;5095885;27;19919;-66
2022/06/30 00:40:28;;;;;;;;;;;16.80;99.90;;;;;;5112525;27;19951;-65
2022/06/30 00:42:53;;;;;;;;;;;16.80;99.90;;;;;;5115678;27;19907;-65
2022/06/30 00:45:19;;;;;;;;;;;16.90;99.90;;;;;;5096740;27;19912;-65
2022/06/30 00:47:44;;;;;;;;;;;16.90;99.90;;;;;;5094032;28;19912;-65
2022/06/30 00:50:10;;;;;;;;;;;16.80;99.90;;;;;;5116999;27;19926;-65
2022/06/30 00:52:36;;;;;;;;;;;16.70;99.90;;;;;;5093354;28;19908;-65
2022/06/30 00:55:02;;;;;;;;;;;16.70;99.90;;;;;;5111137;27;19911;-65
2022/06/30 00:57:29;;;;;;;;;;;16.60;99.90;;;;;;5094393;28;19920;-65
2022/06/30 00:59:55;;;;;;;;;;;16.40;99.90;;;;;;5121876;27;19990;-66
2022/06/30 01:02:21;;;;;;;;;;;16.30;99.90;;;;;;5111602;27;20320;-66
2022/06/30 01:04:49;;;;;;;;;;;16.20;99.90;;;;;;5116032;27;20006;-66
2022/06/30 01:07:15;;;;;;;;;;;16.10;99.90;;;;;;5115850;27;19914;-65
2022/06/30 01:12:43;;;;;;;;;;;16.30;99.90;;;;;;5108287;27;19977;-66
2022/06/30 01:15:16;;;;;;;;;;;16.40;99.90;;;;;;5108886;27;19912;-66
2022/06/30 01:17:42;;;;;;;;;;;16.30;99.90;;;;;;5115412;27;20496;-66
2022/06/30 01:20:08;;;;;;;;;;;16.40;99.90;;;;;;5111840;27;19908;-65
2022/06/30 01:22:33;;;;;;;;;;;16.40;99.90;;;;;;5091267;28;20275;-65
2022/06/30 01:24:59;;;;;;;;;;;16.30;99.90;;;;;;5118150;27;19907;-66
2022/06/30 01:27:24;;;;;;;;;;;16.30;99.90;;;;;;5115142;27;19911;-65
2022/06/30 01:29:53;;;;;;;;;;;16.30;99.90;;;;;;5118285;27;19919;-65
2022/06/30 01:32:19;;;;;;;;;;;16.20;99.90;;;;;;5115473;27;20399;-65
2022/06/30 01:34:44;;;;;;;;;;;16.00;99.90;;;;;;5119838;27;19919;-65
2022/06/30 01:37:10;;;;;;;;;;;15.90;99.90;;;;;;5115130;27;20771;-66
2022/06/30 01:39:36;;;;;;;;;;;15.70;99.90;;;;;;5114805;27;19956;-66
2022/06/30 01:42:02;;;;;;;;;;;15.70;99.90;;;;;;5117736;27;19911;-66
2022/06/30 01:44:27;;;;;;;;;;;15.60;99.90;;;;;;5103337;28;20301;-66
2022/06/30 01:46:53;;;;;;;;;;;15.60;99.90;;;;;;5107928;27;19969;-66
2022/06/30 01:49:18;;;;;;;;;;;15.60;99.90;;;;;;5093707;28;20302;-65
2022/06/30 01:51:44;;;;;;;;;;;15.60;99.90;;;;;;5099257;28;19907;-66
2022/06/30 01:54:10;;;;;;;;;;;15.60;99.90;;;;;;5112688;27;20395;-65
2022/06/30 01:56:36;;;;;;;;;;;15.60;99.90;;;;;;5107938;28;19938;-65
2022/06/30 01:59:01;;;;;;;;;;;15.60;99.90;;;;;;5113287;27;19912;-65
2022/06/30 02:01:27;;;;;;;;;;;15.50;99.90;;;;;;5097633;28;20294;-65
2022/06/30 02:03:53;;;;;;;;;;;15.40;99.90;;;;;;5120871;27;19957;-66
2022/06/30 02:06:18;;;;;;;;;;;15.40;99.90;;;;;;5110958;27;19908;-66
2022/06/30 02:08:44;;;;;;;;;;;15.30;99.90;;;;;;5113177;28;19908;-66
2022/06/30 02:11:09;;;;;;;;;;;15.30;99.90;;;;;;5112327;28;19939;-66
2022/06/30 02:13:35;;;;;;;;;;;15.30;99.90;;;;;;5111053;28;20290;-65
2022/06/30 02:16:00;;;;;;;;;;;15.10;99.90;;;;;;5114342;28;20414;-65
2022/06/30 02:18:26;;;;;;;;;;;15.40;99.90;;;;;;5111480;28;20003;-65
2022/06/30 02:20:51;;;;;;;;;;;15.40;99.90;;;;;;5119891;28;20496;-65
2022/06/30 02:23:17;;;;;;;;;;;15.30;99.90;;;;;;5113597;28;19908;-65
2022/06/30 02:25:42;;;;;;;;;;;15.20;99.90;;;;;;5117868;28;19907;-65
2022/06/30 02:28:08;;;;;;;;;;;15.20;99.90;;;;;;5113754;28;19908;-66
2022/06/30 02:30:34;;;;;;;;;;;15.20;99.90;;;;;;5096102;28;20513;-66
2022/06/30 02:33:00;;;;;;;;;;;15.30;99.90;;;;;;5110389;28;20339;-66
2022/06/30 02:35:25;;;;;;;;;;;15.20;99.90;;;;;;5118929;28;19925;-65
2022/06/30 02:37:51;;;;;;;;;;;15.50;99.90;;;;;;5117559;28;19923;-65
2022/06/30 02:40:16;;;;;;;;;;;15.50;99.90;;;;;;5111415;28;19911;-65
2022/06/30 02:42:42;;;;;;;;;;;15.40;99.90;;;;;;5115429;27;19954;-66
2022/06/30 02:45:08;;;;;;;;;;;15.30;99.90;;;;;;5117698;27;19912;-66
2022/06/30 02:47:38;;;;;;;;;;;15.10;99.90;;;;;;5121093;27;19919;-66
2022/06/30 02:50:05;;;;;;;;;;;15.00;99.90;;;;;;5122670;27;19952;-66
2022/06/30 02:52:31;;;;;;;;;;;15.00;99.90;;;;;;5115625;27;19915;-65
2022/06/30 02:54:57;;;;;;;;;;;15.10;99.90;;;;;;5120492;27;19907;-65
2022/06/30 02:57:22;;;;;;;;;;;15.00;99.90;;;;;;5122840;27;20250;-66
2022/06/30 02:59:48;;;;;;;;;;;14.90;99.90;;;;;;5119689;27;19915;-65
2022/06/30 03:02:13;;;;;;;;;;;14.80;99.90;;;;;;5120044;27;19911;-65
2022/06/30 03:04:39;;;;;;;;;;;14.80;99.90;;;;;;5117137;27;19919;-65
2022/06/30 03:07:04;;;;;;;;;;;15.00;99.90;;;;;;5091435;27;19959;-65
2022/06/30 03:09:30;;;;;;;;;;;15.00;99.90;;;;;;5112826;27;19964;-65
2022/06/30 03:11:55;;;;;;;;;;;15.10;99.90;;;;;;5117807;27;19908;-66
2022/06/30 03:14:21;;;;;;;;;;;15.00;99.90;;;;;;5119663;27;19918;-65
2022/06/30 03:16:46;;;;;;;;;;;15.00;99.90;;;;;;5116178;27;20370;-65
2022/06/30 03:19:12;;;;;;;;;;;14.90;99.90;;;;;;5115211;27;20260;-65
2022/06/30 03:21:37;;;;;;;;;;;14.70;99.90;;;;;;5122957;27;19915;-65
2022/06/30 03:24:03;;;;;;;;;;;14.80;99.90;;;;;;5088625;28;19912;-65
2022/06/30 03:26:28;;;;;;;;;;;14.80;99.90;;;;;;5114893;27;19911;-65
2022/06/30 03:28:54;;;;;;;;;;;14.80;99.90;;;;;;5119044;27;19919;-66
2022/06/30 03:31:19;;;;;;;;;;;14.90;99.90;;;;;;5114054;27;20584;-66
2022/06/30 03:33:45;;;;;;;;;;;14.90;99.90;;;;;;5113193;27;19942;-66
2022/06/30 03:36:10;;;;;;;;;;;14.80;99.90;;;;;;5113939;27;20372;-66
2022/06/30 03:38:36;;;;;;;;;;;14.80;99.90;;;;;;5113384;27;19915;-66
2022/06/30 03:41:01;;;;;;;;;;;14.80;99.90;;;;;;5122581;27;19911;-66
2022/06/30 03:43:27;;;;;;;;;;;14.80;99.90;;;;;;5105060;27;19911;-66
2022/06/30 03:45:53;;;;;;;;;;;14.80;99.90;;;;;;5120654;27;19951;-65
2022/06/30 03:48:18;;;;;;;;;;;14.90;99.90;;;;;;5096965;28;19915;-65
2022/06/30 03:50:44;;;;;;;;;;;15.00;99.90;;;;;;5114327;27;19916;-65
2022/06/30 03:53:09;;;;;;;;;;;15.00;99.90;;;;;;5121863;27;19911;-65
2022/06/30 03:55:39;;;;;;;;;;;15.20;99.90;;;;;;5120532;27;19908;-65
2022/06/30 03:58:05;;;;;;;;;;;15.50;99.90;;;;;;5093179;28;20007;-65
2022/06/30 04:00:31;;;;;;;;;;;15.40;99.90;;;;;;5120957;27;20493;-65
2022/06/30 04:02:57;;;;;;;;;;;15.40;99.90;;;;;;5118041;27;19907;-65
2022/06/30 04:05:22;;;;;;;;;;;15.40;99.90;;;;;;5115170;27;19911;-66
2022/06/30 04:07:48;;;;;;;;;;;15.30;99.90;;;;;;5119586;27;19907;-65
2022/06/30 04:10:14;;;;;;;;;;;15.30;99.90;;;;;;5114353;27;19908;-65
2022/06/30 04:12:39;;;;;;;;;;;15.40;99.90;;;;;;5122662;27;19942;-65
2022/06/30 04:15:06;;;;;;;;;;;15.40;99.90;;;;;;5117428;27;20000;-65
2022/06/30 04:17:34;;;;;;;;;;;15.50;99.90;;;;;;5105630;27;20076;-65
2022/06/30 04:20:03;;;;;;;;;;;15.70;99.90;;;;;;5102993;27;19916;-65
2022/06/30 04:22:29;;;;;;;;;;;15.80;99.90;;;;;;5109458;27;19919;-65
2022/06/30 04:24:54;;;;;;;;;;;15.90;99.90;;;;;;5108251;27;19912;-65
2022/06/30 04:27:20;;;;;;;;;;;16.00;99.90;;;;;;5104942;27;19916;-65
2022/06/30 04:29:45;;;;;;;;;;;16.10;99.90;;;;;;5104336;27;19939;-65
2022/06/30 04:34:55;;;;;;;;;;;16.20;99.90;;;;;;5103385;27;20046;-66
2022/06/30 04:37:21;;;;;;;;;;;16.20;99.90;;;;;;5105993;27;20014;-65
2022/06/30 04:39:46;;;;;;;;;;;16.20;99.90;;;;;;5100639;27;19920;-65
2022/06/30 04:42:12;;;;;;;;;;;16.30;99.90;;;;;;5103242;27;19908;-65
2022/06/30 04:44:37;;;;;;;;;;;16.60;99.90;;;;;;5100331;28;19966;-65
2022/06/30 04:47:03;;;;;;;;;;;16.90;99.90;;;;;;5089748;28;19951;-65
2022/06/30 04:49:28;;;;;;;;;;;17.00;99.90;;;;;;5105235;27;19912;-65
2022/06/30 04:51:54;;;;;;;;;;;17.10;99.90;;;;;;5105690;27;20379;-65
2022/06/30 04:54:19;;;;;;;;;;;17.30;99.90;;;;;;5103719;27;20193;-65
2022/06/30 04:56:45;;;;;;;;;;;17.60;99.90;;;;;;5115253;27;19959;-65
2022/06/30 04:59:11;;;;;;;;;;;17.70;99.90;;;;;;5098903;27;20002;-65
2022/06/30 05:01:36;;;;;;;;;;;17.70;99.90;;;;;;5109121;27;20002;-65
2022/06/30 05:04:01;;;;;;;;;;;17.80;99.90;;;;;;5115864;27;19916;-65
2022/06/30 05:06:27;;;;;;;;;;;17.90;99.90;;;;;;5093818;28;19912;-65
2022/06/30 05:08:52;;;;;;;;;;;17.90;99.90;;;;;;5112898;27;20546;-65
2022/06/30 05:11:18;;;;;;;;;;;18.00;99.90;;;;;;5103713;27;19914;-65
2022/06/30 05:13:43;;;;;;;;;;;18.00;99.90;;;;;;5104006;27;19915;-65
2022/06/30 05:16:09;;;;;;;;;;;18.20;99.90;;;;;;5114057;27;20540;-65
2022/06/30 05:18:35;;;;;;;;;;;18.30;99.90;;;;;;5099512;27;19953;-65
2022/06/30 05:21:00;;;;;;;;;;;18.50;99.90;;;;;;5109392;27;19915;-65
2022/06/30 05:23:26;;;;;;;;;;;18.60;99.90;;;;;;5102022;27;19919;-65
2022/06/30 05:28:36;;;;;;;;;;;18.90;99.90;;;;;;5113362;27;20423;-66
2022/06/30 05:31:01;;;;;;;;;;;19.20;99.90;;;;;;5110885;27;20007;-66
2022/06/30 05:33:26;;;;;;;;;;;19.50;99.90;;;;;;5111506;27;19990;-65
2022/06/30 05:35:53;;;;;;;;;;;19.70;99.90;;;;;;5108681;27;20468;-65
2022/06/30 05:38:18;;;;;;;;;;;19.90;99.90;;;;;;5106767;27;19916;-66
2022/06/30 05:40:46;;;;;;;;;;;20.00;99.90;;;;;;5107100;27;19914;-65
2022/06/30 05:43:13;;;;;;;;;;;20.20;99.90;;;;;;5105419;28;19926;-65
2022/06/30 05:45:40;;;;;;;;;;;20.30;99.90;;;;;;5109434;27;19950;-65
2022/06/30 05:48:05;;;;;;;;;;;20.40;99.90;;;;;;5091471;28;19957;-65
2022/06/30 05:50:31;;;;;;;;;;;20.50;99.90;;;;;;5112241;27;19919;-65
2022/06/30 05:52:57;;;;;;;;;;;20.60;99.90;;;;;;5106628;27;19908;-65
2022/06/30 05:55:22;;;;;;;;;;;20.70;99.90;;;;;;5112520;27;20364;-65
2022/06/30 05:57:48;;;;;;;;;;;20.90;99.90;;;;;;5113903;27;20401;-65
2022/06/30 06:00:13;;;;;;;;;;;21.00;99.90;;;;;;5117218;27;20002;-65
2022/06/30 06:02:39;;;;;;;;;;;21.10;99.90;;;;;;5104805;27;19907;-65
2022/06/30 06:05:04;;;;;;;;;;;21.20;99.90;;;;;;5112068;27;19912;-65
2022/06/30 06:07:30;;;;;;;;;;;21.20;99.90;;;;;;5109845;28;19908;-65
2022/06/30 06:09:55;;;;;;;;;;;21.40;99.90;;;;;;5106055;28;20361;-65
2022/06/30 06:12:22;;;;;;;;;;;21.50;99.90;;;;;;5107921;28;19930;-64
2022/06/30 06:14:48;;;;;;;;;;;21.60;99.90;;;;;;5113150;28;19919;-65
2022/06/30 06:17:13;;;;;;;;;;;21.70;99.90;;;;;;5113403;27;19920;-65
2022/06/30 06:19:38;;;;;;;;;;;21.90;99.90;;;;;;5117927;27;19911;-64
2022/06/30 06:22:04;;;;;;;;;;;22.00;99.90;;;;;;5108490;27;20391;-64
2022/06/30 06:24:29;;;;;;;;;;;22.10;99.90;;;;;;5107428;27;19912;-64
2022/06/30 06:26:55;;;;;;;;;;;22.10;99.90;;;;;;5116030;27;20268;-65
2022/06/30 06:29:21;;;;;;;;;;;22.20;99.90;;;;;;5093671;27;19995;-65
2022/06/30 06:31:47;;;;;;;;;;;22.40;99.90;;;;;;5118622;27;19907;-65
2022/06/30 06:34:13;;;;;;;;;;;22.50;99.90;;;;;;5114640;27;19919;-65
2022/06/30 06:36:38;;;;;;;;;;;22.50;99.90;;;;;;5098402;27;20117;-65
2022/06/30 06:39:04;;;;;;;;;;;22.70;99.90;;;;;;5118327;27;19915;-65
2022/06/30 06:41:30;;;;;;;;;;;22.80;99.90;;;;;;5108116;27;19916;-65
2022/06/30 06:43:55;;;;;;;;;;;23.00;99.90;;;;;;5115746;27;19911;-65
2022/06/30 06:46:26;;;;;;;;;;;23.10;99.90;;;;;;5115049;27;19959;-65
2022/06/30 06:48:52;;;;;;;;;;;23.30;99.90;;;;;;5096531;28;19916;-66
2022/06/30 06:51:18;;;;;;;;;;;23.50;99.90;;;;;;5122453;27;20422;-65
2022/06/30 06:53:43;;;;;;;;;;;23.70;99.90;;;;;;5118920;27;20055;-65
2022/06/30 06:56:09;;;;;;;;;;;23.70;99.90;;;;;;5100051;28;19968;-65
2022/06/30 06:58:34;;;;;;;;;;;23.90;99.90;;;;;;5118197;27;19999;-65
2022/06/30 07:01:00;;;;;;;;;;;24.10;99.90;;;;;;5110477;27;19955;-65
2022/06/30 07:03:25;;;;;;;;;;;24.00;99.90;;;;;;5118014;27;19912;-65
2022/06/30 07:05:51;;;;;;;;;;;24.00;99.90;;;;;;5102757;27;19915;-65
2022/06/30 07:08:16;;;;;;;;;;;24.00;99.90;;;;;;5118163;27;19921;-65
2022/06/30 07:10:42;;;;;;;;;;;24.10;99.90;;;;;;5111282;27;19907;-65
2022/06/30 07:13:07;;;;;;;;;;;24.30;99.90;;;;;;5113521;27;19911;-65
2022/06/30 07:15:33;;;;;;;;;;;24.40;99.90;;;;;;5117452;27;19999;-65
2022/06/30 07:17:58;;;;;;;;;;;24.50;99.90;;;;;;5114684;27;19945;-64
2022/06/30 07:20:24;;;;;;;;;;;24.60;99.90;;;;;;5103875;27;19908;-65
2022/06/30 07:22:50;;;;;;;;;;;24.80;99.90;;;;;;5119185;27;19911;-65
2022/06/30 07:25:15;;;;;;;;;;;24.80;99.90;;;;;;5116835;27;19973;-65
2022/06/30 07:27:41;;;;;;;;;;;24.90;99.90;;;;;;5115728;27;19912;-65
2022/06/30 07:30:07;;;;;;;;;;;24.90;99.90;;;;;;5114167;27;19943;-65
2022/06/30 07:32:33;;;;;;;;;;;24.80;99.90;;;;;;5108840;27;19920;-65
2022/06/30 07:34:59;;;;;;;;;;;24.80;99.90;;;;;;5120378;27;20359;-65
2022/06/30 07:37:24;;;;;;;;;;;25.10;99.90;;;;;;5114077;27;19911;-65
2022/06/30 07:39:50;;;;;;;;;;;25.20;99.90;;;;;;5117216;27;19912;-65
2022/06/30 07:42:15;;;;;;;;;;;25.30;99.90;;;;;;5098498;28;19985;-65
2022/06/30 07:44:42;;;;;;;;;;;25.50;99.90;;;;;;5113788;27;20370;-65
2022/06/30 07:47:08;;;;;;;;;;;25.40;99.90;;;;;;5097511;27;19911;-65
2022/06/30 07:49:33;;;;;;;;;;;25.50;99.90;;;;;;5086843;27;19958;-65
2022/06/30 07:51:59;;;;;;;;;;;25.60;99.90;;;;;;5113792;27;20432;-65
2022/06/30 07:54:24;;;;;;;;;;;25.70;99.90;;;;;;5116648;27;19930;-65
2022/06/30 07:56:50;;;;;;;;;;;25.90;99.90;;;;;;5117202;27;19915;-65
2022/06/30 07:59:15;;;;;;;;;;;25.80;99.90;;;;;;5118090;27;19919;-65
2022/06/30 08:01:41;;;;;;;;;;;25.70;99.90;;;;;;5112605;27;19911;-65
2022/06/30 08:04:07;;;;;;;;;;;25.70;99.90;;;;;;5092620;28;19919;-65
2022/06/30 08:06:32;;;;;;;;;;;26.00;99.90;;;;;;5111443;27;19911;-65
2022/06/30 08:08:58;;;;;;;;;;;25.80;99.90;;;;;;5107574;27;19908;-65
2022/06/30 08:11:23;;;;;;;;;;;25.90;99.90;;;;;;5110449;27;20298;-65
2022/06/30 08:13:49;;;;;;;;;;;26.30;99.90;;;;;;5091787;28;19907;-65
2022/06/30 08:16:15;;;;;;;;;;;26.90;99.90;;;;;;5115658;27;19912;-65
2022/06/30 08:18:41;;;;;;;;;;;27.10;99.90;;;;;;5092841;28;19924;-65
2022/06/30 08:21:06;;;;;;;;;;;27.30;99.90;;;;;;5090188;27;19931;-65
2022/06/30 08:23:32;;;;;;;;;;;27.90;98.70;;;;;;5104637;27;19914;-65
2022/06/30 08:25:58;;;;;;;;;;;28.50;96.70;;;;;;5110913;27;19911;-65
2022/06/30 08:28:23;;;;;;;;;;;28.90;92.70;;;;;;5112830;27;19934;-65
2022/06/30 08:30:50;;;;;;;;;;;29.10;92.50;;;;;;5111525;27;20010;-65
2022/06/30 08:33:16;;;;;;;;;;;29.50;91.10;;;;;;5113430;27;19911;-65
2022/06/30 08:35:41;;;;;;;;;;;29.90;88.00;;;;;;5109830;27;19935;-65
2022/06/30 08:38:07;;;;;;;;;;;29.60;88.60;;;;;;5116122;27;19916;-65
2022/06/30 08:43:18;;;;;;;;;;;29.70;89.10;;;;;;5112483;27;19918;-65
2022/06/30 08:45:43;;;;;;;;;;;30.40;87.80;;;;;;5115198;27;20015;-65
2022/06/30 08:48:09;;;;;;;;;;;30.10;82.80;;;;;;5105645;27;20180;-65
2022/06/30 08:50:34;;;;;;;;;;;30.10;85.00;;;;;;5114296;27;19908;-65
2022/06/30 08:53:02;;;;;;;;;;;30.70;85.00;;;;;;5112489;27;19912;-65
2022/06/30 08:55:28;;;;;;;;;;;30.50;83.10;;;;;;5114969;27;19907;-66
2022/06/30 08:57:55;;;;;;;;;;;30.80;83.30;;;;;;5114353;27;19911;-65
2022/06/30 09:00:20;;;;;;;;;;;31.30;82.10;;;;;;5109495;27;19997;-65
2022/06/30 09:02:47;;;;;;;;;;;31.90;77.70;;;;;;5117802;27;19955;-65
2022/06/30 09:05:13;;;;;;;;;;;31.80;77.00;;;;;;5114149;27;19986;-65
2022/06/30 09:07:39;;;;;;;;;;;32.00;75.70;;;;;;5113118;27;19911;-65
2022/06/30 09:10:08;;;;;;;;;;;32.20;74.50;;;;;;5108347;27;19923;-66
2022/06/30 09:12:34;;;;;;;;;;;32.50;73.40;;;;;;5108097;27;19911;-66
2022/06/30 09:15:00;;;;;;;;;;;32.50;74.30;;;;;;5118159;27;19936;-65
2022/06/30 09:17:27;;;;;;;;;;;32.10;73.10;;;;;;5112296;27;20023;-66
2022/06/30 09:19:52;;;;;;;;;;;31.90;74.20;;;;;;5089153;27;19912;-65
2022/06/30 09:22:18;;;;;;;;;;;31.70;73.00;;;;;;5112679;27;19941;-65
2022/06/30 09:24:43;;;;;;;;;;;32.10;73.70;;;;;;5107137;27;19918;-65
2022/06/30 09:27:12;;;;;;;;;;;32.70;71.50;;;;;;5110814;27;19907;-65
2022/06/30 09:29:54;;;;;;;;;;;32.30;71.30;;;;;;5111138;27;20018;-65
2022/06/30 09:32:20;;;;;;;;;;;31.80;71.20;;;;;;5107650;28;20018;-66
2022/06/30 09:34:46;;;;;;;;;;;32.60;72.10;;;;;;5114623;27;19976;-65
2022/06/30 09:37:20;;;;;;;;;;;32.60;70.00;;;;;;5114311;27;19915;-65
2022/06/30 09:39:46;;;;;;;;;;;32.40;69.50;;;;;;5107973;27;20309;-66
2022/06/30 09:42:12;;;;;;;;;;;32.60;69.00;;;;;;5111464;27;19923;-65
2022/06/30 09:44:38;;;;;;;;;;;32.50;69.80;;;;;;5084952;27;20417;-65
2022/06/30 09:47:06;;;;;;;;;;;32.60;67.60;;;;;;5111668;27;19912;-65
2022/06/30 09:49:33;;;;;;;;;;;33.00;66.50;;;;;;5102271;27;20607;-66
2022/06/30 09:52:01;;;;;;;;;;;33.00;65.30;;;;;;5112167;27;20054;-65
2022/06/30 09:54:27;;;;;;;;;;;32.50;66.10;;;;;;5108317;27;19953;-65
2022/06/30 09:56:59;;;;;;;;;;;32.60;66.30;;;;;;5092051;27;19912;-65
2022/06/30 09:59:25;;;;;;;;;;;33.10;65.30;;;;;;5107158;28;19915;-65
2022/06/30 10:01:51;;;;;;;;;;;33.70;64.50;;;;;;5092053;28;20355;-65
2022/06/30 10:04:17;;;;;;;;;;;34.40;65.30;;;;;;5110283;27;19961;-65
2022/06/30 10:06:42;;;;;;;;;;;34.90;61.20;;;;;;5112481;27;19912;-66
2022/06/30 10:09:09;;;;;;;;;;;35.30;59.50;;;;;;5106688;28;19918;-66
2022/06/30 10:11:35;;;;;;;;;;;35.40;58.80;;;;;;5114868;28;20044;-66
2022/06/30 10:14:01;;;;;;;;;;;35.20;59.20;;;;;;5108947;28;20322;-66
2022/06/30 10:16:26;;;;;;;;;;;34.90;58.00;;;;;;5108647;28;19911;-66
2022/06/30 10:18:52;;;;;;;;;;;35.20;57.10;;;;;;5089564;28;20266;-66
2022/06/30 10:21:20;;;;;;;;;;;35.00;57.60;;;;;;5112371;28;19915;-66
2022/06/30 10:23:46;;;;;;;;;;;35.10;58.50;;;;;;5108544;28;19908;-66
2022/06/30 10:27:12;;;;;;;;;;;35.20;57.50;;;;;;5106361;28;20002;-66
2022/06/30 10:28:57;;;;;;;;;;;34.90;57.20;;;;;;5104097;28;20177;-66
2022/06/30 10:31:43;;;;;;;;;;;33.90;59.10;;;;;;5112710;28;19911;-65
2022/06/30 10:34:12;;;;;;;;;;;32.00;60.90;;;;;;5105739;28;20123;-66
2022/06/30 10:36:37;;;;;;;;;;;32.10;61.40;;;;;;5083914;28;20001;-66
2022/06/30 10:39:06;;;;;;;;;;;33.50;61.00;;;;;;5084517;28;19957;-66
2022/06/30 10:41:42;;;;;;;;;;;34.30;59.80;;;;;;5111523;28;20473;-66
2022/06/30 10:44:08;;;;;;;;;;;35.20;59.00;;;;;;5107056;28;19914;-65
2022/06/30 10:46:56;;;;;;;;;;;35.80;57.30;;;;;;5111144;28;19912;-66
2022/06/30 10:49:26;;;;;;;;;;;36.70;56.20;;;;;;5106308;28;20288;-66
2022/06/30 10:51:55;;;;;;;;;;;36.90;55.30;;;;;;5113194;28;19912;-66
2022/06/30 10:54:28;;;;;;;;;;;36.40;56.10;;;;;;5093170;28;19911;-66
2022/06/30 10:56:55;;;;;;;;;;;37.00;54.40;;;;;;5111861;28;19919;-66
2022/06/30 10:59:30;;;;;;;;;;;37.30;53.30;;;;;;5117766;28;19918;-66
2022/06/30 11:02:10;;;;;;;;;;;37.10;53.80;;;;;;5116541;27;19907;-66
2022/06/30 11:04:40;;;;;;;;;;;37.30;53.00;;;;;;5110117;27;20396;-66
2022/06/30 11:07:17;;;;;;;;;;;36.80;53.50;;;;;;5113204;27;19912;-65
2022/06/30 11:09:43;;;;;;;;;;;35.50;55.20;;;;;;5107232;27;19920;-65
2022/06/30 11:12:08;;;;;;;;;;;35.20;55.90;;;;;;5115206;27;19927;-66
2022/06/30 11:14:34;;;;;;;;;;;35.00;54.80;;;;;;5111189;27;20018;-66
2022/06/30 11:17:00;;;;;;;;;;;34.60;55.40;;;;;;5115947;27;20421;-65
2022/06/30 11:19:32;;;;;;;;;;;34.30;56.10;;;;;;5107701;27;19933;-65
2022/06/30 11:21:58;;;;;;;;;;;35.40;55.50;;;;;;5102406;28;19908;-66
2022/06/30 11:24:24;;;;;;;;;;;37.10;55.20;;;;;;5109877;27;20382;-66
2022/06/30 11:29:34;;;;;;;;;;;39.10;51.80;;;;;;5114858;27;20262;-66
2022/06/30 11:32:00;;;;;;;;;;;39.60;53.50;;;;;;5114562;27;19911;-66
2022/06/30 11:34:26;;;;;;;;;;;38.50;52.20;;;;;;5113508;27;20305;-66
2022/06/30 11:36:52;;;;;;;;;;;37.80;52.80;;;;;;5088208;27;19990;-66
2022/06/30 11:39:18;;;;;;;;;;;37.90;54.60;;;;;;5115435;27;20030;-66
2022/06/30 11:42:01;;;;;;;;;;;37.20;53.30;;;;;;5114236;27;20362;-66
2022/06/30 11:44:32;;;;;;;;;;;36.90;53.80;;;;;;5093837;28;19916;-65
2022/06/30 11:46:58;;;;;;;;;;;37.00;52.80;;;;;;5110260;28;20037;-65
2022/06/30 11:49:24;;;;;;;;;;;37.40;52.90;;;;;;5107583;27;20006;-66
2022/06/30 11:51:50;;;;;;;;;;;36.70;53.60;;;;;;5118352;27;20000;-66
2022/06/30 11:54:21;;;;;;;;;;;35.90;53.00;;;;;;5109551;28;20232;-66
2022/06/30 11:56:47;;;;;;;;;;;35.20;53.90;;;;;;5113014;27;19917;-65
2022/06/30 11:59:13;;;;;;;;;;;34.50;55.50;;;;;;5114920;27;20136;-66
2022/06/30 12:01:39;;;;;;;;;;;36.20;54.50;;;;;;5097461;27;19959;-66
2022/06/30 12:04:13;;;;;;;;;;;37.90;53.10;;;;;;5118589;27;19919;-66
2022/06/30 12:06:39;;;;;;;;;;;37.20;53.20;;;;;;5105472;27;19950;-66
2022/06/30 12:09:04;;;;;;;;;;;37.20;53.00;;;;;;5108232;27;20286;-66
2022/06/30 12:11:30;;;;;;;;;;;36.70;53.10;;;;;;5116351;27;19960;-66
2022/06/30 12:13:56;;;;;;;;;;;36.30;53.20;;;;;;5111095;27;19908;-66
2022/06/30 12:16:21;;;;;;;;;;;36.00;53.50;;;;;;5096235;27;20416;-66
2022/06/30 12:18:47;;;;;;;;;;;35.90;53.40;;;;;;5105511;27;20084;-66
2022/06/30 12:21:13;;;;;;;;;;;35.80;53.80;;;;;;5115429;27;20047;-66
2022/06/30 12:23:39;;;;;;;;;;;35.80;54.10;;;;;;5104368;28;20426;-66
2022/06/30 12:26:06;;;;;;;;;;;36.70;54.70;;;;;;5108966;27;19996;-66
2022/06/30 12:28:44;;;;;;;;;;;36.50;52.40;;;;;;5110341;27;19919;-66
2022/06/30 12:31:10;;;;;;;;;;;34.60;53.80;;;;;;5098901;28;19999;-65
2022/06/30 12:33:39;;;;;;;;;;;33.50;54.80;;;;;;5107473;27;20014;-65
2022/06/30 12:36:05;;;;;;;;;;;33.30;57.80;;;;;;5113376;27;20097;-65
2022/06/30 12:38:30;;;;;;;;;;;32.70;57.00;;;;;;5109368;27;19915;-65
2022/06/30 12:40:56;;;;;;;;;;;32.60;57.90;;;;;;5111419;27;19908;-65
2022/06/30 12:43:22;;;;;;;;;;;32.50;58.50;;;;;;5118237;27;19919;-65
2022/06/30 12:45:55;;;;;;;;;;;31.80;57.40;;;;;;5115149;27;19912;-65
2022/06/30 12:48:39;;;;;;;;;;;31.80;57.70;;;;;;5094265;28;19912;-65
2022/06/30 12:51:05;;;;;;;;;;;32.20;60.90;;;;;;5113502;27;19960;-65
2022/06/30 12:53:31;;;;;;;;;;;32.00;62.30;;;;;;5116201;27;19979;-65
2022/06/30 12:55:58;;;;;;;;;;;32.20;62.50;;;;;;5101415;27;19921;-65
2022/06/30 12:58:24;;;;;;;;;;;32.70;60.50;;;;;;5108190;27;20393;-65
2022/06/30 13:00:49;;;;;;;;;;;33.10;60.80;;;;;;5116237;27;19908;-65
2022/06/30 13:03:15;;;;;;;;;;;35.00;58.10;;;;;;5095939;27;20378;-65
2022/06/30 13:05:40;;;;;;;;;;;35.80;56.50;;;;;;5113210;27;20007;-65
2022/06/30 13:08:06;;;;;;;;;;;37.30;55.00;;;;;;5113325;27;19922;-65
2022/06/30 13:13:15;;;;;;;;;;;38.40;53.20;;;;;;5108627;27;19980;-65
2022/06/30 13:15:41;;;;;;;;;;;40.00;52.20;;;;;;5109516;27;20285;-65
2022/06/30 13:18:06;;;;;;;;;;;39.90;51.10;;;;;;5108504;27;19919;-65
2022/06/30 13:20:32;;;;;;;;;;;39.00;51.20;;;;;;5105216;27;19938;-65
2022/06/30 13:22:57;;;;;;;;;;;38.20;52.50;;;;;;5111176;27;19937;-65
2022/06/30 13:25:23;;;;;;;;;;;38.30;52.50;;;;;;5110205;27;20041;-66
2022/06/30 13:27:48;;;;;;;;;;;38.20;51.90;;;;;;5109057;27;19962;-66
2022/06/30 13:30:14;;;;;;;;;;;39.30;50.30;;;;;;5104101;28;20010;-65
2022/06/30 13:32:39;;;;;;;;;;;38.60;53.00;;;;;;5112910;27;20052;-65
2022/06/30 13:35:05;;;;;;;;;;;37.90;53.50;;;;;;5114085;27;20195;-65
2022/06/30 13:37:30;;;;;;;;;;;38.60;52.70;;;;;;5112519;27;19916;-65
2022/06/30 13:39:56;;;;;;;;;;;38.30;52.00;;;;;;5112108;27;19918;-65
2022/06/30 13:42:21;;;;;;;;;;;38.20;52.20;;;;;;5113323;27;19926;-65
2022/06/30 13:44:47;;;;;;;;;;;38.50;52.00;;;;;;5113964;27;19911;-65
2022/06/30 13:47:12;;;;;;;;;;;39.20;50.10;;;;;;5112429;27;20378;-66
2022/06/30 13:49:40;;;;;;;;;;;39.30;50.10;;;;;;5107221;27;20259;-66
2022/06/30 13:52:06;;;;;;;;;;;38.90;51.50;;;;;;5114610;27;19907;-66
2022/06/30 13:54:31;;;;;;;;;;;38.30;50.40;;;;;;5110602;27;19922;-65
2022/06/30 13:56:57;;;;;;;;;;;38.60;50.80;;;;;;5112981;27;19908;-66
2022/06/30 13:59:28;;;;;;;;;;;38.30;51.10;;;;;;5112657;28;20402;-66
2022/06/30 14:01:54;;;;;;;;;;;38.50;51.30;;;;;;5105270;28;19943;-66
2022/06/30 14:04:19;;;;;;;;;;;39.30;51.70;;;;;;5114335;27;19911;-66
2022/06/30 14:06:46;;;;;;;;;;;39.50;50.40;;;;;;5113650;27;19916;-66
2022/06/30 14:09:11;;;;;;;;;;;40.00;49.90;;;;;;5083663;28;20017;-66
2022/06/30 14:11:37;;;;;;;;;;;40.30;49.80;;;;;;5109668;27;20400;-66
2022/06/30 14:14:02;;;;;;;;;;;40.50;49.60;;;;;;5094084;28;19923;-66
2022/06/30 14:16:28;;;;;;;;;;;38.10;51.30;;;;;;5111780;28;20263;-66
2022/06/30 14:18:53;;;;;;;;;;;36.70;53.60;;;;;;5107279;28;19955;-65
2022/06/30 14:21:19;;;;;;;;;;;35.70;54.30;;;;;;5109474;28;20051;-65
2022/06/30 14:23:44;;;;;;;;;;;36.70;54.00;;;;;;5104115;28;20006;-65
2022/06/30 14:26:11;;;;;;;;;;;37.80;54.30;;;;;;5088628;28;19908;-66
2022/06/30 14:28:37;;;;;;;;;;;39.70;51.80;;;;;;5115650;28;19999;-66